タシュケント の空港の天気 - METARとTAF

タシケント空港 ( UTTT / TAS ) - ウズベキスタン タシュケント
飛行場実況気象(Metar)
観測時間09/25 08:30 UZT (09/25 03:30 UTC)
風向・風速東南東 2m/s
視程7000m
天気現象
なし
気温19℃
湿度37%
気圧1019hPa
METARUTTT 250330Z 11004KT 070V170 7000 NSC 19/04 Q1019 R08R/CLRD70 NOSIG
過去の天気等 Google飛行場航空写真 Wunderground天気予報

過去48時間のMETAR

飛行場予報(TAF)
発表時間: 9/25 04:00 UZT (9/24 23:00 UTC)
予報対象時間: 25日5時 UZT ~ 26日5時 UZT
風向・風速北北東 6m/s
視程7000m
なし
25日11時 UZT ~ 25日21時 UZT に一時的に
風向・風速南南西 8m/s
TAF UTTT 242300Z 2500/2524 02012KT 7000 NSC
TEMPO 2506/2516 20015KT